createdAt,value
2022-09-06T00:01:22.240Z,100334.38
2022-09-06T00:03:52.422Z,100334.28
2022-09-06T00:06:22.901Z,100329.72
2022-09-06T00:08:52.888Z,100324.34
2022-09-06T00:11:25.207Z,100322.34
2022-09-06T00:13:54.919Z,100329.44
2022-09-06T00:16:30.153Z,100325.75
2022-09-06T00:19:00.694Z,100331.00
2022-09-06T00:21:31.986Z,100334.44
2022-09-06T00:24:01.630Z,100329.88
2022-09-06T00:26:33.857Z,100337.81
2022-09-06T00:29:03.500Z,100341.09
2022-09-06T00:31:35.531Z,100342.50
2022-09-06T00:34:05.365Z,100371.03
2022-09-06T00:36:35.018Z,100391.47
2022-09-06T00:39:04.892Z,100456.88
2022-09-06T00:41:37.112Z,100475.22
2022-09-06T00:44:06.860Z,100460.31
2022-09-06T00:46:37.147Z,100460.00
2022-09-06T00:49:10.242Z,100475.75
2022-09-06T00:51:39.979Z,100479.13
2022-09-06T00:54:11.093Z,100480.53
2022-09-06T00:56:45.023Z,100462.34
2022-09-06T00:59:14.801Z,100462.72
2022-09-06T01:01:44.520Z,100455.22
2022-09-06T01:04:14.482Z,100446.53
2022-09-06T01:06:51.175Z,100442.41
2022-09-06T01:09:33.558Z,100449.34
2022-09-06T01:12:19.777Z,100447.19
2022-09-06T01:15:00.043Z,100446.47
2022-09-06T01:17:39.658Z,100448.44
2022-09-06T01:20:32.503Z,100433.41
2022-09-06T01:23:25.873Z,100437.50
2022-09-06T01:26:05.308Z,100429.22
2022-09-06T01:28:39.319Z,100419.84
2022-09-06T01:31:18.883Z,100407.78
2022-09-06T01:33:53.059Z,100411.00
2022-09-06T01:36:25.849Z,100410.53
2022-09-06T01:38:55.912Z,100417.44
2022-09-06T01:41:25.516Z,100430.44
2022-09-06T01:43:58.533Z,100442.44
2022-09-06T01:46:32.526Z,100441.88
2022-09-06T01:49:12.978Z,100446.63
2022-09-06T01:51:55.290Z,100445.19
2022-09-06T01:54:31.613Z,100444.03
2022-09-06T01:57:13.121Z,100438.31
2022-09-06T01:59:58.049Z,100438.25
2022-09-06T02:02:31.079Z,100438.16
2022-09-06T02:05:04.890Z,100455.91
2022-09-06T02:07:35.015Z,100462.91
2022-09-06T02:10:10.333Z,100473.44
2022-09-06T02:12:43.397Z,100473.09
2022-09-06T02:15:18.833Z,100451.34
2022-09-06T02:17:51.715Z,100445.88
2022-09-06T02:20:25.567Z,100442.34
2022-09-06T02:22:56.455Z,100438.81
2022-09-06T02:25:29.404Z,100439.53
2022-09-06T02:27:59.163Z,100419.53
2022-09-06T02:30:31.561Z,100413.81
2022-09-06T02:33:03.675Z,100413.34
2022-09-06T02:35:33.497Z,100426.41
2022-09-06T02:38:03.153Z,100426.75
2022-09-06T02:40:32.807Z,100418.19
2022-09-06T02:43:02.429Z,100418.44
2022-09-06T02:45:35.143Z,100410.78
2022-09-06T02:48:05.260Z,100401.13
2022-09-06T02:50:34.872Z,100399.53
2022-09-06T02:53:06.156Z,100398.03
2022-09-06T02:55:36.107Z,100400.97
2022-09-06T02:58:06.645Z,100389.63
2022-09-06T03:00:39.270Z,100392.53
2022-09-06T03:03:09.074Z,100385.59
2022-09-06T03:05:38.767Z,100381.19
2022-09-06T03:08:08.541Z,100377.66
2022-09-06T03:10:38.142Z,100370.56
2022-09-06T03:13:07.816Z,100368.75
2022-09-06T03:15:40.025Z,100366.06
2022-09-06T03:18:09.662Z,100368.66
2022-09-06T03:20:39.330Z,100369.63
2022-09-06T03:23:09.587Z,100378.50
2022-09-06T03:25:39.299Z,100380.34
2022-09-06T03:28:08.930Z,100388.41
2022-09-06T03:30:41.696Z,100400.72
2022-09-06T03:33:11.384Z,100399.63
2022-09-06T03:35:41.898Z,100401.94
2022-09-06T03:38:11.570Z,100401.81
2022-09-06T03:40:41.216Z,100394.97
2022-09-06T03:43:10.889Z,100392.66
2022-09-06T03:45:43.224Z,100385.97
2022-09-06T03:48:12.907Z,100389.09
2022-09-06T03:50:47.145Z,100381.56
2022-09-06T03:53:17.267Z,100371.16
2022-09-06T03:55:47.632Z,100363.50
2022-09-06T03:58:17.724Z,100369.94
2022-09-06T04:00:50.135Z,100376.41
2022-09-06T04:03:20.933Z,100384.56
2022-09-06T04:05:50.546Z,100374.06
2022-09-06T04:08:20.207Z,100384.91
2022-09-06T04:10:52.638Z,100378.06
2022-09-06T04:13:22.377Z,100369.41
2022-09-06T04:15:55.205Z,100366.22
2022-09-06T04:18:25.301Z,100353.41
2022-09-06T04:20:56.555Z,100352.16
2022-09-06T04:23:27.467Z,100354.69
2022-09-06T04:25:59.502Z,100358.03
2022-09-06T04:28:29.763Z,100350.81
2022-09-06T04:31:05.208Z,100351.41
2022-09-06T04:33:36.407Z,100348.53
2022-09-06T04:36:08.712Z,100355.19
2022-09-06T04:38:39.937Z,100358.22
2022-09-06T04:41:10.468Z,100355.88
2022-09-06T04:43:40.082Z,100365.22
2022-09-06T04:46:16.908Z,100370.06
2022-09-06T04:48:46.568Z,100369.53
2022-09-06T04:51:16.197Z,100372.44
2022-09-06T04:53:45.819Z,100376.31
2022-09-06T04:56:17.507Z,100373.94
2022-09-06T04:58:48.440Z,100379.66
2022-09-06T05:01:21.040Z,100379.13
2022-09-06T05:03:53.979Z,100385.53
2022-09-06T05:06:27.295Z,100378.69
2022-09-06T05:08:57.035Z,100388.56
2022-09-06T05:11:27.499Z,100389.63
2022-09-06T05:13:57.124Z,100391.34
2022-09-06T05:16:29.429Z,100389.41
2022-09-06T05:18:59.124Z,100384.81
2022-09-06T05:21:28.731Z,100390.88
2022-09-06T05:23:58.893Z,100396.13
2022-09-06T05:26:28.594Z,100394.22
2022-09-06T05:28:58.196Z,100391.31
2022-09-06T05:31:32.248Z,100394.53
2022-09-06T05:34:02.628Z,100393.94
2022-09-06T05:36:33.435Z,100392.56
2022-09-06T05:39:03.175Z,100392.09
2022-09-06T05:41:33.827Z,100390.78
2022-09-06T05:44:03.832Z,100397.63
2022-09-06T05:46:36.075Z,100396.44
2022-09-06T05:49:08.026Z,100390.78
2022-09-06T05:51:37.642Z,100387.75
2022-09-06T05:54:07.871Z,100392.03
2022-09-06T05:56:37.492Z,100395.22
2022-09-06T05:59:07.121Z,100393.16
2022-09-06T06:01:39.360Z,100386.38
2022-09-06T06:04:09.087Z,100403.81
2022-09-06T06:06:38.707Z,100398.00
2022-09-06T06:09:08.446Z,100396.50
2022-09-06T06:11:38.094Z,100396.91
2022-09-06T06:14:07.964Z,100390.94
2022-09-06T06:16:40.280Z,100396.56
2022-09-06T06:19:09.949Z,100395.88
2022-09-06T06:21:40.036Z,100389.81
2022-09-06T06:24:10.122Z,100390.06
2022-09-06T06:26:40.537Z,100389.34
2022-09-06T06:29:10.621Z,100394.00
2022-09-06T06:31:43.150Z,100393.88
2022-09-06T06:34:13.311Z,100393.78
2022-09-06T06:36:44.372Z,100386.47
2022-09-06T06:39:14.066Z,100392.44
2022-09-06T06:41:43.711Z,100385.94
2022-09-06T06:44:48.798Z,100380.81
2022-09-06T06:47:21.022Z,100368.66
2022-09-06T06:49:50.829Z,100378.13
2022-09-06T06:52:21.497Z,100375.03
2022-09-06T06:54:51.644Z,100376.31
2022-09-06T06:57:21.279Z,100356.34
2022-09-06T06:59:50.933Z,100362.50
2022-09-06T07:02:23.202Z,100363.06
2022-09-06T07:04:52.846Z,100373.13
2022-09-06T07:12:48.903Z,100358.78
2022-09-06T07:15:18.663Z,100364.81
2022-09-06T07:17:50.892Z,100365.47
2022-09-06T07:20:20.525Z,100363.03
2022-09-06T07:22:50.242Z,100373.09
2022-09-06T07:25:21.526Z,100361.28
2022-09-06T07:27:51.432Z,100361.75
2022-09-06T07:30:21.625Z,100363.00
2022-09-06T07:32:53.985Z,100366.72
2022-09-06T07:35:25.048Z,100365.38
2022-09-06T07:37:55.623Z,100360.38
2022-09-06T07:40:25.455Z,100359.06
2022-09-06T07:42:55.105Z,100351.94
2022-09-06T07:45:24.763Z,100351.38
2022-09-06T07:48:00.971Z,100364.91
2022-09-06T07:50:47.726Z,100352.50
2022-09-06T07:53:26.235Z,100356.78
2022-09-06T07:56:00.857Z,100353.63
2022-09-06T07:58:31.490Z,100358.75
2022-09-06T08:01:30.186Z,100369.84
2022-09-06T08:04:03.904Z,100367.44
2022-09-06T08:09:25.214Z,100369.81
2022-09-06T08:11:55.420Z,100366.81
2022-09-06T08:14:27.336Z,100382.03
2022-09-06T08:16:57.001Z,100375.41
2022-09-06T08:19:29.335Z,100363.84
2022-09-06T08:21:59.017Z,100379.72
2022-09-06T08:24:29.082Z,100378.31
2022-09-06T08:26:58.820Z,100364.94
2022-09-06T08:29:28.632Z,100373.47
2022-09-06T08:31:58.441Z,100370.56
2022-09-06T08:34:30.777Z,100364.84
2022-09-06T08:37:00.513Z,100368.16
2022-09-06T08:39:30.301Z,100366.84
2022-09-06T08:42:03.810Z,100370.53
2022-09-06T08:47:26.962Z,100368.03
2022-09-06T08:50:04.506Z,100368.34
2022-09-06T08:53:15.721Z,100356.13
2022-09-06T08:55:46.305Z,100361.03
2022-09-06T08:58:26.158Z,100355.69
2022-09-06T09:00:59.202Z,100353.78
2022-09-06T09:03:34.359Z,100346.34
2022-09-06T09:06:07.374Z,100337.16
2022-09-06T09:08:43.111Z,100344.66
2022-09-06T09:11:17.206Z,100341.69
2022-09-06T09:13:55.902Z,100339.28
2022-09-06T09:16:25.993Z,100341.44
2022-09-06T09:18:58.209Z,100334.00
2022-09-06T09:21:31.258Z,100331.97
2022-09-06T09:24:02.397Z,100332.31
2022-09-06T09:26:37.433Z,100319.03
2022-09-06T09:29:08.825Z,100329.34
2022-09-06T09:31:40.952Z,100323.50
2022-09-06T09:34:13.790Z,100320.44
2022-09-06T09:39:39.779Z,100316.91
2022-09-06T09:42:10.818Z,100318.50
2022-09-06T09:44:45.702Z,100312.75
2022-09-06T09:47:28.478Z,100306.91
2022-09-06T09:49:58.154Z,100304.09
2022-09-06T09:52:31.940Z,100290.16
2022-09-06T09:55:05.101Z,100289.28
2022-09-06T09:57:46.532Z,100289.47
2022-09-06T10:00:17.136Z,100289.19
2022-09-06T10:02:46.925Z,100292.41
2022-09-06T10:05:23.580Z,100297.59
2022-09-06T10:07:57.726Z,100289.00
2022-09-06T10:10:28.843Z,100294.56
2022-09-06T10:13:10.514Z,100288.47
2022-09-06T10:15:41.758Z,100287.66
2022-09-06T10:18:18.423Z,100285.34
2022-09-06T10:20:52.792Z,100280.78
2022-09-06T10:26:27.020Z,100286.41
2022-09-06T10:29:01.790Z,100286.22
2022-09-06T10:31:52.188Z,100287.13
2022-09-06T10:34:51.808Z,100288.41
2022-09-06T10:37:28.849Z,100280.31
2022-09-06T10:40:06.542Z,100282.75
2022-09-06T10:42:43.554Z,100281.16
2022-09-06T10:45:27.118Z,100283.31
2022-09-06T10:48:02.675Z,100280.03
2022-09-06T10:50:40.101Z,100286.03
2022-09-06T10:53:14.513Z,100285.56
2022-09-06T10:55:48.720Z,100287.63
2022-09-06T10:58:22.512Z,100284.16
2022-09-06T11:00:54.276Z,100274.44
2022-09-06T11:06:20.287Z,100275.09
2022-09-06T11:08:57.869Z,100278.56
2022-09-06T11:11:39.550Z,100282.69
2022-09-06T11:14:13.468Z,100280.94
2022-09-06T11:16:48.529Z,100282.34
2022-09-06T11:19:22.701Z,100281.91
2022-09-06T11:22:11.220Z,100280.41
2022-09-06T11:24:53.364Z,100285.59
2022-09-06T11:27:35.961Z,100276.25
2022-09-06T11:30:08.010Z,100277.31
2022-09-06T11:32:41.084Z,100276.66
2022-09-06T11:35:13.997Z,100279.56
2022-09-06T11:37:49.638Z,100275.34
2022-09-06T11:40:27.183Z,100279.97
2022-09-06T11:43:48.336Z,100277.03
2022-09-06T11:46:56.571Z,100273.47
2022-09-06T11:49:41.893Z,100281.81
2022-09-06T11:52:44.342Z,100273.22
2022-09-06T11:55:17.267Z,100278.38
2022-09-06T11:57:50.488Z,100265.78
2022-09-06T12:00:24.004Z,100259.69
2022-09-06T12:02:54.360Z,100261.09
2022-09-06T12:05:29.441Z,100256.69
2022-09-06T12:08:28.213Z,100256.28
2022-09-06T12:11:03.771Z,100255.47
2022-09-06T12:13:44.693Z,100252.94
2022-09-06T12:16:14.979Z,100256.69
2022-09-06T12:19:00.915Z,100247.28
2022-09-06T12:21:52.340Z,100240.41
2022-09-06T12:24:52.099Z,100234.16
2022-09-06T12:27:22.989Z,100246.00
2022-09-06T12:29:58.895Z,100237.22
2022-09-06T12:32:36.572Z,100244.03
2022-09-06T12:38:02.192Z,100243.81
2022-09-06T12:40:33.702Z,100243.63
2022-09-06T12:43:05.682Z,100233.38
2022-09-06T12:45:35.748Z,100230.66
2022-09-06T12:48:11.554Z,100231.47
2022-09-06T12:50:41.729Z,100226.88
2022-09-06T12:53:26.655Z,100229.84
2022-09-06T12:56:06.079Z,100220.44
2022-09-06T12:58:36.102Z,100217.50
2022-09-06T13:01:12.495Z,100218.19
2022-09-06T13:03:45.354Z,100216.94
2022-09-06T13:06:26.641Z,100224.25
2022-09-06T13:09:01.039Z,100210.97
2022-09-06T13:11:34.292Z,100211.75
2022-09-06T13:14:03.984Z,100219.06
2022-09-06T13:16:37.641Z,100213.63
2022-09-06T13:19:14.529Z,100207.78
2022-09-06T13:21:46.058Z,100200.44
2022-09-06T13:24:26.977Z,100215.38
2022-09-06T13:26:57.248Z,100204.28
2022-09-06T13:29:28.699Z,100204.28
2022-09-06T13:31:59.812Z,100196.75
2022-09-06T13:34:30.813Z,100191.72
2022-09-06T13:37:04.754Z,100195.75
2022-09-06T13:39:39.430Z,100191.78
2022-09-06T13:42:10.694Z,100179.16
2022-09-06T13:44:41.549Z,100189.72
2022-09-06T13:47:11.207Z,100191.38
2022-09-06T13:49:40.847Z,100189.50
2022-09-06T13:52:10.913Z,100186.78
2022-09-06T13:54:43.137Z,100180.28
2022-09-06T13:57:13.207Z,100183.44
2022-09-06T13:59:42.896Z,100192.31
2022-09-06T14:02:16.010Z,100184.75
2022-09-06T14:04:45.819Z,100181.81
2022-09-06T14:07:15.445Z,100178.25
2022-09-06T14:09:49.757Z,100187.69
2022-09-06T14:12:19.463Z,100190.59
2022-09-06T14:14:49.068Z,100184.88
2022-09-06T14:17:19.050Z,100183.78
2022-09-06T14:19:49.561Z,100185.22
2022-09-06T14:22:19.239Z,100177.25
2022-09-06T14:24:51.553Z,100178.69
2022-09-06T14:27:21.245Z,100179.44
2022-09-06T14:29:50.920Z,100178.56
2022-09-06T14:32:22.690Z,100166.72
2022-09-06T14:34:52.525Z,100170.00
2022-09-06T14:37:22.174Z,100163.72
2022-09-06T14:39:54.466Z,100161.25
2022-09-06T14:42:24.726Z,100157.31
2022-09-06T14:44:54.349Z,100157.09
2022-09-06T14:47:24.032Z,100152.69
2022-09-06T14:49:53.665Z,100147.63
2022-09-06T14:52:23.336Z,100150.56
2022-09-06T14:54:55.516Z,100139.84
2022-09-06T14:57:25.158Z,100139.19
2022-09-06T14:59:55.287Z,100134.31
2022-09-06T15:02:26.365Z,100138.06
2022-09-06T15:04:56.029Z,100133.03
2022-09-06T15:07:25.831Z,100130.50
2022-09-06T15:09:58.093Z,100132.56
2022-09-06T15:12:28.015Z,100125.41
2022-09-06T15:14:57.629Z,100125.81
2022-09-06T15:17:27.253Z,100119.88
2022-09-06T15:19:57.142Z,100119.06
2022-09-06T15:22:26.909Z,100110.03
2022-09-06T15:24:59.145Z,100116.53
2022-09-06T15:27:29.530Z,100103.09
2022-09-06T15:29:59.299Z,100099.72
2022-09-06T15:32:29.388Z,100091.94
2022-09-06T15:35:04.457Z,100089.59
2022-09-06T15:37:34.480Z,100088.50
2022-09-06T15:40:07.184Z,100082.38
2022-09-06T15:42:36.942Z,100087.38
2022-09-06T15:45:07.021Z,100088.59
2022-09-06T15:47:37.385Z,100087.75
2022-09-06T15:50:07.765Z,100086.94
2022-09-06T15:52:37.424Z,100084.41
2022-09-06T15:55:23.154Z,100077.22
2022-09-06T15:57:52.813Z,100088.31
2022-09-06T16:00:23.732Z,100089.34
2022-09-06T16:02:53.471Z,100080.72
2022-09-06T16:08:12.994Z,100072.47
2022-09-06T16:10:45.249Z,100077.47
2022-09-06T16:13:14.873Z,100075.31
2022-09-06T16:15:44.497Z,100074.88
2022-09-06T16:18:14.126Z,100077.78
2022-09-06T16:20:43.971Z,100076.28
2022-09-06T16:23:13.593Z,100074.78
2022-09-06T16:25:50.220Z,100076.00
2022-09-06T16:28:19.853Z,100071.31
2022-09-06T16:30:49.497Z,100073.78
2022-09-06T16:33:19.123Z,100074.53
2022-09-06T16:35:48.787Z,100071.38
2022-09-06T16:38:18.463Z,100072.78
2022-09-06T16:40:50.768Z,100075.03
2022-09-06T16:43:20.381Z,100069.75
2022-09-06T16:45:58.670Z,100070.97
2022-09-06T16:48:28.825Z,100061.69
2022-09-06T16:50:58.517Z,100065.16
2022-09-06T16:53:28.324Z,100070.31
2022-09-06T16:56:00.504Z,100073.13
2022-09-06T16:58:30.225Z,100067.59
2022-09-06T17:01:00.844Z,100064.81
2022-09-06T17:03:30.804Z,100063.66
2022-09-06T17:06:00.439Z,100069.47
2022-09-06T17:08:30.120Z,100067.13
2022-09-06T17:11:03.504Z,100061.41
2022-09-06T17:13:32.869Z,100060.81
2022-09-06T17:16:17.168Z,100065.00
2022-09-06T17:18:48.625Z,100063.56
2022-09-06T17:21:18.299Z,100068.41
2022-09-06T17:23:48.022Z,100070.34
2022-09-06T17:26:21.358Z,100072.47
2022-09-06T17:28:51.019Z,100070.78
2022-09-06T17:31:25.672Z,100072.53
2022-09-06T17:33:56.262Z,100072.91
2022-09-06T17:36:27.789Z,100066.63
2022-09-06T17:39:02.876Z,100063.06
2022-09-06T17:41:37.113Z,100061.38
2022-09-06T17:44:07.466Z,100057.81
2022-09-06T17:46:41.147Z,100046.47
2022-09-06T17:49:13.732Z,100047.84
2022-09-06T17:51:43.927Z,100054.47
2022-09-06T17:54:13.546Z,100044.66
2022-09-06T17:56:46.255Z,100048.56
2022-09-06T17:59:16.731Z,100044.53
2022-09-06T18:01:47.319Z,100046.94
2022-09-06T18:04:18.086Z,100045.59
2022-09-06T18:06:48.234Z,100044.28
2022-09-06T18:09:19.136Z,100044.97
2022-09-06T18:11:51.424Z,100039.25
2022-09-06T18:14:21.928Z,100047.25
2022-09-06T18:16:54.262Z,100044.38
2022-09-06T18:19:24.458Z,100046.44
2022-09-06T18:21:54.269Z,100044.13
2022-09-06T18:24:24.080Z,100045.34
2022-09-06T18:26:56.344Z,100050.28
2022-09-06T18:29:26.012Z,100057.09
2022-09-06T18:31:57.368Z,100056.78
2022-09-06T18:34:27.049Z,100059.81
2022-09-06T18:36:57.132Z,100049.16
2022-09-06T18:39:26.808Z,100051.03
2022-09-06T18:42:10.579Z,100056.28
2022-09-06T18:44:40.631Z,100061.53
2022-09-06T18:47:12.292Z,100055.78
2022-09-06T18:49:44.336Z,100061.53
2022-09-06T18:52:14.419Z,100053.06
2022-09-06T18:54:44.871Z,100055.25
2022-09-06T18:57:17.333Z,100056.75
2022-09-06T18:59:47.359Z,100053.00
2022-09-06T19:02:17.045Z,100053.53
2022-09-06T19:04:46.731Z,100053.84
2022-09-06T19:07:16.360Z,100059.59
2022-09-06T19:09:45.982Z,100046.22
2022-09-06T19:12:18.256Z,100046.22
2022-09-06T19:14:47.906Z,100051.47
2022-09-06T19:17:17.568Z,100065.00
2022-09-06T19:19:47.202Z,100068.72
2022-09-06T19:22:17.674Z,100065.16
2022-09-06T19:24:47.285Z,100061.81
2022-09-06T19:27:19.518Z,100062.47
2022-09-06T19:29:49.701Z,100064.16
2022-09-06T19:32:22.261Z,100063.63
2022-09-06T19:34:52.043Z,100053.16
2022-09-06T19:37:23.863Z,100050.78
2022-09-06T19:39:54.043Z,100052.78
2022-09-06T19:42:26.427Z,100043.84
2022-09-06T19:44:56.196Z,100042.81
2022-09-06T19:47:25.832Z,100038.09
2022-09-06T19:49:55.430Z,100025.22
2022-09-06T19:52:25.109Z,100021.50
2022-09-06T19:54:55.105Z,100010.69
2022-09-06T19:57:27.311Z,100019.66
2022-09-06T19:59:56.987Z,100020.84
2022-09-06T20:02:26.711Z,100027.59
2022-09-06T20:04:56.497Z,100017.94
2022-09-06T20:07:27.234Z,100013.53
2022-09-06T20:09:57.020Z,100015.25
2022-09-06T20:12:29.773Z,100011.66
2022-09-06T20:14:59.442Z,100016.41
2022-09-06T20:17:33.782Z,100017.59
2022-09-06T20:20:04.369Z,100014.34
2022-09-06T20:22:34.050Z,100029.75
2022-09-06T20:25:03.663Z,100036.19
2022-09-06T20:27:35.881Z,100032.63
2022-09-06T20:30:05.642Z,100039.94
2022-09-06T20:32:35.290Z,100050.88
2022-09-06T20:35:04.933Z,100056.63
2022-09-06T20:37:34.569Z,100057.13
2022-09-06T20:40:05.478Z,100057.59
2022-09-06T20:42:42.177Z,100065.38
2022-09-06T20:45:12.929Z,100058.91
2022-09-06T20:47:42.588Z,100064.97
2022-09-06T20:50:13.048Z,100054.94
2022-09-06T20:52:42.655Z,100059.16
2022-09-06T20:55:12.759Z,100065.19
2022-09-06T20:57:45.033Z,100062.31
2022-09-06T21:00:15.913Z,100064.47
2022-09-06T21:02:45.543Z,100072.19
2022-09-06T21:05:15.180Z,100067.28
2022-09-06T21:07:44.806Z,100053.22
2022-09-06T21:10:14.445Z,100054.41
2022-09-06T21:12:46.721Z,100053.88
2022-09-06T21:15:16.411Z,100043.69
2022-09-06T21:17:46.024Z,100035.22
2022-09-06T21:20:15.758Z,100055.59
2022-09-06T21:22:45.389Z,100057.81
2022-09-06T21:25:15.050Z,100059.22
2022-09-06T21:27:47.251Z,100062.41
2022-09-06T21:30:17.498Z,100070.28
2022-09-06T21:32:47.152Z,100070.94
2022-09-06T21:35:16.803Z,100073.41
2022-09-06T21:37:46.416Z,100088.50
2022-09-06T21:40:16.379Z,100084.56
2022-09-06T21:42:48.909Z,100077.09
2022-09-06T21:45:18.616Z,100079.41
2022-09-06T21:47:48.289Z,100068.38
2022-09-06T21:50:18.225Z,100058.88
2022-09-06T21:52:47.912Z,100055.78
2022-09-06T21:55:17.637Z,100039.19
2022-09-06T21:57:49.858Z,100035.13
2022-09-06T22:00:19.888Z,100011.28
2022-09-06T22:02:49.802Z,100019.84
2022-09-06T22:05:19.436Z,100000.56
2022-09-06T22:07:49.057Z,99993.75
2022-09-06T22:10:18.844Z,99981.28
2022-09-06T22:12:51.046Z,99979.88
2022-09-06T22:15:22.238Z,99970.25
2022-09-06T22:17:52.197Z,99971.94
2022-09-06T22:20:22.882Z,99963.53
2022-09-06T22:22:52.981Z,99954.44
2022-09-06T22:25:22.868Z,99944.38
2022-09-06T22:27:55.068Z,99930.03
2022-09-06T22:30:25.923Z,99931.72
2022-09-06T22:32:55.995Z,99926.88
2022-09-06T22:35:25.652Z,99918.63
2022-09-06T22:37:55.281Z,99914.78
2022-09-06T22:40:24.909Z,99918.16
2022-09-06T22:42:57.191Z,99916.69
2022-09-06T22:45:26.961Z,99906.63
2022-09-06T22:47:56.568Z,99902.91
2022-09-06T22:50:26.208Z,99906.31
2022-09-06T22:52:55.835Z,99906.13
2022-09-06T22:55:25.464Z,99899.59
2022-09-06T22:57:57.644Z,99901.28
2022-09-06T23:00:27.689Z,99903.00
2022-09-06T23:02:57.486Z,99906.38
2022-09-06T23:05:27.110Z,99908.75
2022-09-06T23:07:57.691Z,99923.94
2022-09-06T23:10:27.546Z,99919.38
2022-09-06T23:13:00.315Z,99923.94
2022-09-06T23:15:29.917Z,99945.53
2022-09-06T23:17:59.544Z,99950.25
2022-09-06T23:20:29.286Z,99965.56
2022-09-06T23:22:58.864Z,100106.78
2022-09-06T23:25:28.449Z,100140.16
2022-09-06T23:28:01.850Z,100146.47
2022-09-06T23:30:31.928Z,100174.09
2022-09-06T23:33:01.569Z,100197.47
2022-09-06T23:35:31.131Z,100200.91
2022-09-06T23:38:00.703Z,100203.97
2022-09-06T23:40:30.282Z,100220.19
2022-09-06T23:43:02.438Z,100222.69
2022-09-06T23:45:32.026Z,100216.94
2022-09-06T23:48:01.616Z,100233.97
2022-09-06T23:50:31.268Z,100220.97
2022-09-06T23:53:00.828Z,100227.03
2022-09-06T23:55:30.429Z,100242.22
2022-09-06T23:58:02.550Z,100246.06
